Time;durP1;ratioP1;P1;durP2;ratioP2;P2;SDS_P1;SDS_P2;PMS_P1;PMS_P2;Temp;Humidity;BMP_temperature;BMP_pressure;BME280_temperature;BME280_humidity;BME280_pressure;Samples;Min_cycle;Max_cycle;Signal;HPM_P1;HPM_P2
2022/10/13 00:00:20;;;;;;;16.15;12.23;;;9.80;99.90;;;;;;4979347;28;20023;-84
2022/10/13 00:02:46;;;;;;;19.48;13.23;;;9.80;99.90;;;;;;4961838;28;20041;-84
2022/10/13 00:05:11;;;;;;;23.30;13.93;;;9.80;99.90;;;;;;4973443;28;20138;-83
2022/10/13 00:07:37;;;;;;;20.75;13.38;;;9.80;99.90;;;;;;4979512;28;20031;-83
2022/10/13 00:10:03;;;;;;;20.45;13.68;;;9.70;99.90;;;;;;4961440;28;20091;-83
2022/10/13 00:12:28;;;;;;;22.33;13.77;;;9.70;99.90;;;;;;4943850;29;20086;-84
2022/10/13 00:14:54;;;;;;;22.67;15.57;;;9.70;99.90;;;;;;4961399;29;20091;-83
2022/10/13 00:17:20;;;;;;;24.58;16.10;;;9.70;99.90;;;;;;4974232;28;20492;-83
2022/10/13 00:19:45;;;;;;;24.25;15.18;;;9.70;99.90;;;;;;4981364;28;20082;-83
2022/10/13 00:22:11;;;;;;;23.05;15.05;;;9.70;99.90;;;;;;4964035;28;20753;-83
2022/10/13 00:24:37;;;;;;;26.67;15.80;;;9.70;99.90;;;;;;4982449;28;20070;-84
2022/10/13 00:27:02;;;;;;;26.55;16.55;;;9.70;99.90;;;;;;4986377;28;20098;-83
2022/10/13 00:29:28;;;;;;;30.73;18.48;;;9.70;99.90;;;;;;4965551;28;20395;-83
2022/10/13 00:31:54;;;;;;;29.35;17.60;;;9.70;99.90;;;;;;4967655;28;20027;-83
2022/10/13 00:34:20;;;;;;;22.73;15.35;;;9.70;99.90;;;;;;4987160;28;20038;-84
2022/10/13 00:36:45;;;;;;;21.77;14.80;;;9.60;99.90;;;;;;4953478;28;20031;-84
2022/10/13 00:39:11;;;;;;;23.48;15.20;;;9.60;99.90;;;;;;4957459;29;20031;-84
2022/10/13 00:41:37;;;;;;;25.17;16.63;;;9.60;99.90;;;;;;4966842;29;20082;-84
2022/10/13 00:44:44;;;;;;;26.88;16.75;;;9.60;99.90;;;;;;4968714;29;20032;-82
2022/10/13 00:47:10;;;;;;;25.13;17.25;;;9.50;99.90;;;;;;4945172;29;20513;-84
2022/10/13 00:49:35;;;;;;;27.50;15.55;;;9.50;99.90;;;;;;4945916;29;20035;-84
2022/10/13 00:52:01;;;;;;;29.63;18.15;;;9.50;99.90;;;;;;4962585;29;20035;-83
2022/10/13 00:54:28;;;;;;;25.05;17.08;;;9.50;99.90;;;;;;4962673;28;20031;-84
2022/10/13 00:56:54;;;;;;;23.80;16.25;;;9.50;99.90;;;;;;4977130;28;20026;-83
2022/10/13 00:59:27;;;;;;;24.00;15.88;;;9.40;99.90;;;;;;4996415;28;20082;-84
2022/10/13 01:01:55;;;;;;;26.42;15.50;;;9.40;99.90;;;;;;4996907;28;20019;-84
2022/10/13 01:04:24;;;;;;;18.95;14.25;;;9.40;99.90;;;;;;4979850;28;20073;-85
2022/10/13 01:06:51;;;;;;;19.77;12.77;;;9.40;99.90;;;;;;4996074;28;20050;-83
2022/10/13 01:09:17;;;;;;;25.50;16.15;;;9.40;99.90;;;;;;4952667;28;20103;-83
2022/10/13 01:11:57;;;;;;;20.35;13.27;;;9.40;99.90;;;;;;4963273;28;20492;-83
2022/10/13 01:14:54;;;;;;;19.42;12.68;;;9.40;99.90;;;;;;4964065;29;20015;-83
2022/10/13 01:17:22;;;;;;;24.30;14.50;;;9.40;99.90;;;;;;4950395;29;20039;-83
2022/10/13 01:20:08;;;;;;;20.58;13.95;;;9.40;99.90;;;;;;4953804;29;20058;-83
2022/10/13 01:23:05;;;;;;;22.88;13.02;;;9.40;99.90;;;;;;4961731;29;20044;-83
2022/10/13 01:26:13;;;;;;;19.13;12.07;;;9.40;99.90;;;;;;4966636;29;20050;-83
2022/10/13 01:29:07;;;;;;;15.70;11.00;;;9.40;99.90;;;;;;4971729;28;20029;-83
2022/10/13 01:31:54;;;;;;;14.15;10.05;;;9.40;99.90;;;;;;4983362;28;20085;-84
2022/10/13 01:35:08;;;;;;;19.40;11.65;;;9.40;99.90;;;;;;4968465;28;20455;-83
2022/10/13 01:38:10;;;;;;;16.50;10.77;;;9.40;99.90;;;;;;4965772;28;20054;-84
2022/10/13 01:40:45;;;;;;;14.05;10.25;;;9.40;99.90;;;;;;4969742;28;20062;-84
2022/10/13 01:43:17;;;;;;;11.73;9.02;;;9.30;99.90;;;;;;4965143;29;20039;-84
2022/10/13 01:46:32;;;;;;;13.20;9.13;;;9.30;99.90;;;;;;4966035;29;20019;-82
2022/10/13 01:49:01;;;;;;;13.02;9.02;;;9.30;99.90;;;;;;4942082;29;20500;-82
2022/10/13 01:51:29;;;;;;;14.80;9.90;;;9.30;99.90;;;;;;4963549;29;20189;-82
2022/10/13 01:53:55;;;;;;;13.75;9.32;;;9.30;99.90;;;;;;4961985;28;20053;-82
2022/10/13 01:56:21;;;;;;;12.95;9.57;;;9.30;99.90;;;;;;4963500;29;20480;-82
2022/10/13 01:58:49;;;;;;;13.32;9.43;;;9.30;99.90;;;;;;4965916;28;20396;-82
2022/10/13 02:01:45;;;;;;;13.30;9.00;;;9.40;99.90;;;;;;4962381;28;20492;-82
2022/10/13 02:04:16;;;;;;;14.23;9.48;;;9.40;99.90;;;;;;4968457;28;20032;-82
2022/10/13 02:06:45;;;;;;;13.30;9.35;;;9.40;99.90;;;;;;4947587;29;20024;-82
2022/10/13 02:09:20;;;;;;;12.38;9.32;;;9.40;99.90;;;;;;4956648;29;20038;-82
2022/10/13 02:11:52;;;;;;;10.88;8.27;;;9.30;99.90;;;;;;4965590;28;20055;-83
2022/10/13 02:14:26;;;;;;;10.80;8.30;;;9.30;99.90;;;;;;4964899;29;20023;-83
2022/10/13 02:16:55;;;;;;;11.18;8.38;;;9.30;99.90;;;;;;4978059;29;20023;-83
2022/10/13 02:19:21;;;;;;;11.10;7.80;;;9.20;99.90;;;;;;4966226;29;20047;-84
2022/10/13 02:21:47;;;;;;;11.15;8.10;;;9.20;99.90;;;;;;4965670;28;20035;-83
2022/10/13 02:24:14;;;;;;;12.30;8.48;;;9.20;99.90;;;;;;4964105;29;20086;-83
2022/10/13 02:26:40;;;;;;;10.07;8.10;;;9.20;99.90;;;;;;4963206;29;20036;-83
2022/10/13 02:29:11;;;;;;;11.20;8.00;;;9.20;99.90;;;;;;4963908;29;20163;-84
2022/10/13 02:31:38;;;;;;;10.98;7.97;;;9.20;99.90;;;;;;4963813;28;20020;-83
2022/10/13 02:34:04;;;;;;;14.57;8.57;;;9.20;99.90;;;;;;4963497;29;20027;-83
2022/10/13 02:36:30;;;;;;;11.77;7.80;;;9.20;99.90;;;;;;4964153;29;20106;-83
2022/10/13 02:38:56;;;;;;;9.95;8.40;;;9.20;99.90;;;;;;4962558;28;20078;-83
2022/10/13 02:41:22;;;;;;;10.95;7.70;;;9.20;99.90;;;;;;4950572;28;20019;-84
2022/10/13 02:43:47;;;;;;;10.77;7.80;;;9.20;99.90;;;;;;4983954;28;20042;-83
2022/10/13 02:46:13;;;;;;;11.13;7.78;;;9.20;99.90;;;;;;4980466;28;20027;-83
2022/10/13 02:48:39;;;;;;;10.35;7.53;;;9.20;99.90;;;;;;4982444;28;20088;-83
2022/10/13 02:51:05;;;;;;;12.85;8.15;;;9.20;99.90;;;;;;4979612;28;20041;-83
2022/10/13 02:53:31;;;;;;;9.73;6.95;;;9.20;99.90;;;;;;4978705;28;20543;-83
2022/10/13 02:55:56;;;;;;;11.93;8.18;;;9.20;99.90;;;;;;4995472;23;20142;-83
2022/10/13 02:58:22;;;;;;;11.45;8.68;;;9.20;99.90;;;;;;4980467;28;20443;-83
2022/10/13 03:00:47;;;;;;;13.48;9.23;;;9.10;99.90;;;;;;4982373;28;20031;-83
2022/10/13 03:03:13;;;;;;;11.55;7.90;;;9.20;99.90;;;;;;4997851;28;20034;-82
2022/10/13 03:05:39;;;;;;;11.50;8.45;;;9.20;99.90;;;;;;5004066;28;20289;-82
2022/10/13 03:08:05;;;;;;;12.43;8.95;;;9.20;99.90;;;;;;5004467;28;20065;-81
2022/10/13 03:10:31;;;;;;;16.65;10.25;;;9.20;99.90;;;;;;4992340;28;20043;-83
2022/10/13 03:12:57;;;;;;;15.40;10.48;;;9.10;99.90;;;;;;4977436;28;20043;-84
2022/10/13 03:15:23;;;;;;;14.95;10.43;;;9.10;99.90;;;;;;5008364;28;20015;-82
2022/10/13 03:17:49;;;;;;;14.02;9.85;;;9.10;99.90;;;;;;4998616;28;20021;-83
2022/10/13 03:20:15;;;;;;;17.55;10.13;;;9.10;99.90;;;;;;4998787;28;20022;-83
2022/10/13 03:22:41;;;;;;;19.38;12.85;;;9.10;99.90;;;;;;4995463;28;20034;-84
2022/10/13 03:25:07;;;;;;;14.40;11.27;;;9.10;99.90;;;;;;5004452;28;20394;-84
2022/10/13 03:27:33;;;;;;;14.68;10.50;;;9.00;99.90;;;;;;4986173;28;20440;-84
2022/10/13 03:29:59;;;;;;;15.10;10.45;;;9.00;99.90;;;;;;4974985;28;20114;-84
2022/10/13 03:32:24;;;;;;;15.98;9.90;;;8.90;99.90;;;;;;4977896;28;20484;-82
2022/10/13 03:34:51;;;;;;;15.93;11.35;;;8.90;99.90;;;;;;4977858;28;20507;-84
2022/10/13 03:37:17;;;;;;;13.20;10.55;;;8.90;99.90;;;;;;4978844;28;20522;-83
2022/10/13 03:39:42;;;;;;;12.13;9.32;;;8.80;99.90;;;;;;4978186;28;20031;-82
2022/10/13 03:42:09;;;;;;;10.90;8.10;;;8.80;99.90;;;;;;4979382;28;20038;-83
2022/10/13 03:44:34;;;;;;;18.83;10.30;;;8.70;99.90;;;;;;5006195;28;20015;-81
2022/10/13 03:47:00;;;;;;;13.05;9.38;;;8.70;99.90;;;;;;5016027;28;20038;-81
2022/10/13 03:49:26;;;;;;;15.05;9.38;;;8.70;99.90;;;;;;5013651;28;20046;-82
2022/10/13 03:51:51;;;;;;;15.20;9.10;;;8.70;99.90;;;;;;5003125;28;20034;-83
2022/10/13 03:54:17;;;;;;;11.48;8.50;;;8.70;99.90;;;;;;4995506;28;20038;-83
2022/10/13 03:56:43;;;;;;;13.07;9.88;;;8.70;99.90;;;;;;4980708;28;20387;-83
2022/10/13 03:59:11;;;;;;;16.10;10.65;;;8.70;99.90;;;;;;4977959;28;20019;-83
2022/10/13 04:01:38;;;;;;;17.90;10.25;;;8.70;99.90;;;;;;4979927;28;20023;-81
2022/10/13 04:04:04;;;;;;;14.38;9.73;;;8.70;99.90;;;;;;4977838;28;20395;-82
2022/10/13 04:06:33;;;;;;;12.15;9.10;;;8.70;99.90;;;;;;4979001;28;20035;-85
2022/10/13 04:08:58;;;;;;;13.15;8.98;;;8.70;99.90;;;;;;4977515;28;20031;-84
2022/10/13 04:11:24;;;;;;;14.40;10.85;;;8.70;99.90;;;;;;4978728;28;20058;-83
2022/10/13 04:13:50;;;;;;;14.63;10.13;;;8.80;99.90;;;;;;4978619;28;20059;-83
2022/10/13 04:16:20;;;;;;;12.25;9.65;;;8.80;99.90;;;;;;4978025;28;20162;-84
2022/10/13 04:18:50;;;;;;;13.70;8.77;;;8.90;99.90;;;;;;4978303;28;20034;-82
2022/10/13 04:21:16;;;;;;;11.77;8.70;;;9.00;99.90;;;;;;4980322;28;20112;-83
2022/10/13 04:23:42;;;;;;;11.77;8.38;;;9.10;99.90;;;;;;4980085;28;20031;-84
2022/10/13 04:26:19;;;;;;;10.25;7.18;;;9.10;99.90;;;;;;4995927;28;20034;-84
2022/10/13 04:28:46;;;;;;;11.13;7.63;;;9.20;99.90;;;;;;4980867;28;20026;-84
2022/10/13 04:31:12;;;;;;;10.68;7.38;;;9.20;99.90;;;;;;4981679;28;20051;-83
2022/10/13 04:33:37;;;;;;;10.20;7.57;;;9.20;99.90;;;;;;4995577;28;20022;-80
2022/10/13 04:36:04;;;;;;;10.23;7.90;;;9.20;99.90;;;;;;4996784;28;20019;-83
2022/10/13 04:38:30;;;;;;;11.90;8.02;;;9.20;99.90;;;;;;4996821;28;20038;-83
2022/10/13 04:40:56;;;;;;;10.73;7.57;;;9.10;99.90;;;;;;4997245;28;20037;-84
2022/10/13 04:43:21;;;;;;;9.57;6.90;;;9.10;99.90;;;;;;4997828;28;20070;-83
2022/10/13 04:45:47;;;;;;;10.07;6.72;;;9.00;99.90;;;;;;4996732;28;20023;-83
2022/10/13 04:48:13;;;;;;;9.10;6.82;;;9.10;99.90;;;;;;4998047;28;20019;-83
2022/10/13 04:50:39;;;;;;;7.95;6.70;;;9.10;99.90;;;;;;4997671;28;20030;-83
2022/10/13 04:53:05;;;;;;;11.85;7.32;;;9.20;99.90;;;;;;4994580;28;20037;-84
2022/10/13 04:55:33;;;;;;;10.75;8.20;;;9.20;99.90;;;;;;4991694;28;20058;-83
2022/10/13 04:57:59;;;;;;;11.80;7.93;;;9.20;99.90;;;;;;4990383;28;20085;-84
2022/10/13 05:00:24;;;;;;;13.60;9.60;;;9.20;99.90;;;;;;4990779;28;20051;-83
2022/10/13 05:02:50;;;;;;;12.32;8.27;;;9.20;99.90;;;;;;4986302;28;20058;-83
2022/10/13 05:05:16;;;;;;;10.52;7.45;;;9.30;99.90;;;;;;4984856;28;20041;-83
2022/10/13 05:07:42;;;;;;;13.73;7.75;;;9.30;99.90;;;;;;4984475;28;20039;-82
2022/10/13 05:10:08;;;;;;;11.70;7.78;;;9.40;99.90;;;;;;4997847;28;20039;-82
2022/10/13 05:12:34;;;;;;;13.75;10.07;;;9.40;99.90;;;;;;4997150;28;20034;-82
2022/10/13 05:14:59;;;;;;;14.90;9.57;;;9.40;99.90;;;;;;4996484;28;20055;-82
2022/10/13 05:17:27;;;;;;;18.17;10.38;;;9.40;99.90;;;;;;4998129;28;20011;-82
2022/10/13 05:19:53;;;;;;;13.98;8.60;;;9.40;99.90;;;;;;4997587;28;20023;-82
2022/10/13 05:22:19;;;;;;;13.63;8.05;;;9.50;99.90;;;;;;4998160;28;20046;-82
2022/10/13 05:24:45;;;;;;;11.45;6.95;;;9.50;99.90;;;;;;4997507;28;20015;-82
2022/10/13 05:27:12;;;;;;;9.80;6.80;;;9.60;99.90;;;;;;4997108;28;20025;-82
2022/10/13 05:29:39;;;;;;;13.77;8.32;;;9.60;99.90;;;;;;4997266;28;20021;-81
2022/10/13 05:32:06;;;;;;;11.25;8.13;;;9.60;99.90;;;;;;4995780;28;20082;-83
2022/10/13 05:34:31;;;;;;;9.23;6.75;;;9.70;99.90;;;;;;4994987;28;20039;-84
2022/10/13 05:36:58;;;;;;;14.77;10.23;;;9.70;99.90;;;;;;4991738;28;20023;-83
2022/10/13 05:39:24;;;;;;;15.25;10.00;;;9.70;99.90;;;;;;4981009;28;20395;-84
2022/10/13 05:41:49;;;;;;;11.73;8.07;;;9.70;99.90;;;;;;4981852;28;20035;-83
2022/10/13 05:44:16;;;;;;;11.25;8.00;;;9.70;99.90;;;;;;4980895;28;20081;-83
2022/10/13 05:46:42;;;;;;;9.30;6.55;;;9.70;99.90;;;;;;4980090;28;20046;-83
2022/10/13 05:49:08;;;;;;;11.65;7.63;;;9.70;99.90;;;;;;4996532;28;20510;-82
2022/10/13 05:51:45;;;;;;;9.43;6.28;;;9.80;99.90;;;;;;4999169;28;20101;-83
2022/10/13 05:54:42;;;;;;;9.68;7.55;;;9.90;99.90;;;;;;4979592;28;20089;-83
2022/10/13 05:57:21;;;;;;;9.25;6.90;;;9.90;99.90;;;;;;4988514;28;20066;-83
2022/10/13 05:59:53;;;;;;;10.93;6.78;;;10.00;99.90;;;;;;5004056;28;20060;-83
2022/10/13 06:02:21;;;;;;;;;;;10.10;99.90;;;;;;5003601;28;20121;-83
2022/10/13 06:04:50;;;;;;;11.63;7.53;;;10.10;99.90;;;;;;5021419;28;20021;-82
2022/10/13 06:07:16;;;;;;;11.30;8.23;;;10.10;99.90;;;;;;4982520;28;20031;-83
2022/10/13 06:09:42;;;;;;;10.00;7.97;;;10.20;99.90;;;;;;4983848;28;20035;-83
2022/10/13 06:12:09;;;;;;;9.70;7.30;;;10.30;99.90;;;;;;4982666;28;20133;-83
2022/10/13 06:14:35;;;;;;;9.27;6.82;;;10.30;99.90;;;;;;4985181;28;20030;-83
2022/10/13 06:17:01;;;;;;;8.07;6.45;;;10.40;99.90;;;;;;4983513;28;20105;-83
2022/10/13 06:19:26;;;;;;;9.23;6.78;;;10.40;99.90;;;;;;4987582;28;20030;-83
2022/10/13 06:21:52;;;;;;;9.50;7.65;;;10.50;99.90;;;;;;4999386;28;20045;-82
2022/10/13 06:24:18;;;;;;;11.00;7.85;;;10.60;99.90;;;;;;5001437;28;20047;-83
2022/10/13 06:26:43;;;;;;;11.35;8.50;;;10.70;99.90;;;;;;4992450;28;20081;-83
2022/10/13 06:29:09;;;;;;;10.82;8.43;;;10.70;99.90;;;;;;4993690;28;20023;-83
2022/10/13 06:31:35;;;;;;;9.30;6.50;;;10.70;99.90;;;;;;5002212;28;20034;-83
2022/10/13 06:34:01;;;;;;;10.43;7.03;;;10.80;99.90;;;;;;5006316;28;20038;-82
2022/10/13 06:36:26;;;;;;;8.90;6.63;;;10.90;99.90;;;;;;5005309;28;20077;-83
2022/10/13 06:38:52;;;;;;;8.30;5.88;;;11.00;99.90;;;;;;5008827;28;20043;-83
2022/10/13 06:41:18;;;;;;;6.30;5.30;;;11.20;99.90;;;;;;5000374;28;20039;-83
2022/10/13 06:43:43;;;;;;;7.15;6.45;;;11.30;99.90;;;;;;4997244;28;20078;-82
2022/10/13 06:46:10;;;;;;;9.45;6.05;;;11.30;99.90;;;;;;4985005;28;20030;-82
2022/10/13 06:48:36;;;;;;;9.73;7.00;;;11.40;99.90;;;;;;4984634;28;20031;-82
2022/10/13 06:51:04;;;;;;;11.40;7.60;;;11.40;99.90;;;;;;4987425;28;20035;-82
2022/10/13 06:53:30;;;;;;;8.25;6.30;;;11.50;99.90;;;;;;4988153;28;20106;-83
2022/10/13 06:55:57;;;;;;;10.30;6.93;;;11.60;99.90;;;;;;4985527;28;20030;-83
2022/10/13 06:58:23;;;;;;;11.70;7.28;;;11.70;99.90;;;;;;4987778;28;20042;-84
2022/10/13 07:00:49;;;;;;;9.45;7.43;;;11.70;99.90;;;;;;4989844;28;20039;-83
2022/10/13 07:03:14;;;;;;;10.73;6.70;;;11.80;99.90;;;;;;4988684;28;20030;-83
2022/10/13 07:05:42;;;;;;;9.38;6.60;;;11.90;99.90;;;;;;4989429;28;20030;-82
2022/10/13 07:08:08;;;;;;;9.20;6.05;;;12.00;99.90;;;;;;4987288;28;20026;-83
2022/10/13 07:10:37;;;;;;;8.27;6.43;;;12.00;99.90;;;;;;4991110;28;20176;-83
2022/10/13 07:13:07;;;;;;;7.57;5.63;;;12.10;99.90;;;;;;5007743;28;20053;-84
2022/10/13 07:15:35;;;;;;;5.57;4.97;;;12.20;99.90;;;;;;5009785;28;20390;-83
2022/10/13 07:18:02;;;;;;;8.32;6.15;;;12.30;99.90;;;;;;5005838;28;20022;-83
2022/10/13 07:20:28;;;;;;;6.57;5.70;;;12.40;99.90;;;;;;4985898;28;20035;-82
2022/10/13 07:22:54;;;;;;;7.15;5.43;;;12.50;99.90;;;;;;4984340;28;20034;-83
2022/10/13 07:25:19;;;;;;;5.70;5.07;;;12.50;99.90;;;;;;4983581;28;20035;-83
2022/10/13 07:27:45;;;;;;;9.07;7.03;;;12.60;99.90;;;;;;4984179;28;20045;-83
2022/10/13 07:30:12;;;;;;;13.60;9.18;;;12.60;99.90;;;;;;4988739;28;20031;-83
2022/10/13 07:32:40;;;;;;;10.38;8.10;;;12.60;99.90;;;;;;4970761;28;20122;-82
2022/10/13 07:35:10;;;;;;;10.65;7.30;;;12.60;99.90;;;;;;4972595;28;20023;-83
2022/10/13 07:37:37;;;;;;;10.63;6.90;;;12.60;99.90;;;;;;4980348;28;20019;-83
2022/10/13 07:40:06;;;;;;;8.07;6.63;;;12.70;99.90;;;;;;4990043;28;20037;-84
2022/10/13 07:42:32;;;;;;;8.73;6.20;;;12.70;99.90;;;;;;5002518;28;20419;-84
2022/10/13 07:45:05;;;;;;;12.60;7.68;;;12.80;99.90;;;;;;5003954;28;20069;-84
2022/10/13 07:47:30;;;;;;;9.75;8.32;;;12.80;99.90;;;;;;4986302;28;20453;-84
2022/10/13 07:49:59;;;;;;;10.23;7.68;;;12.80;99.90;;;;;;4982074;28;20034;-84
2022/10/13 07:52:25;;;;;;;16.35;9.68;;;12.90;99.90;;;;;;4995422;28;20090;-84
2022/10/13 07:54:50;;;;;;;12.43;8.98;;;12.90;99.90;;;;;;5001934;28;20054;-84
2022/10/13 07:57:16;;;;;;;20.85;12.30;;;13.00;99.90;;;;;;5002083;28;20062;-84
2022/10/13 07:59:42;;;;;;;15.68;11.30;;;13.00;99.90;;;;;;5000358;28;20022;-84
2022/10/13 08:02:08;;;;;;;16.17;9.63;;;13.00;99.90;;;;;;4987562;28;20389;-84
2022/10/13 08:04:35;;;;;;;14.68;10.07;;;13.10;99.90;;;;;;4984707;28;20139;-85
2022/10/13 08:07:02;;;;;;;14.48;9.38;;;13.20;99.90;;;;;;4984022;28;20026;-84
2022/10/13 08:09:28;;;;;;;12.80;8.85;;;13.20;99.90;;;;;;4983754;28;20053;-84
2022/10/13 08:11:58;;;;;;;11.85;9.32;;;13.40;99.90;;;;;;4985836;28;20117;-84
2022/10/13 08:14:23;;;;;;;11.32;8.48;;;13.40;99.90;;;;;;4999315;28;20035;-84
2022/10/13 08:16:49;;;;;;;14.95;10.52;;;13.50;99.90;;;;;;5001913;28;20054;-83
2022/10/13 08:19:16;;;;;;;10.05;8.02;;;13.50;99.90;;;;;;4998220;28;20046;-83
2022/10/13 08:21:42;;;;;;;13.23;9.50;;;13.60;99.90;;;;;;4984007;28;20037;-84
2022/10/13 08:24:11;;;;;;;13.35;8.77;;;13.70;99.90;;;;;;4987620;28;20376;-84
2022/10/13 08:26:37;;;;;;;10.70;7.75;;;13.80;99.90;;;;;;4963299;28;20030;-84
2022/10/13 08:29:23;;;;;;;10.02;7.63;;;13.90;99.90;;;;;;4965345;28;20456;-84
2022/10/13 08:32:04;;;;;;;14.77;9.70;;;14.00;99.90;;;;;;4978514;28;20487;-84
2022/10/13 08:34:35;;;;;;;14.27;9.13;;;14.00;99.90;;;;;;4996152;28;20483;-84
2022/10/13 08:37:03;;;;;;;12.35;8.43;;;14.00;99.90;;;;;;5007684;28;20094;-84
2022/10/13 08:39:29;;;;;;;15.38;9.35;;;14.00;99.90;;;;;;5008676;28;20089;-84
2022/10/13 08:41:56;;;;;;;15.80;10.23;;;14.00;99.90;;;;;;5000174;28;20026;-83
2022/10/13 08:44:25;;;;;;;15.50;10.05;;;14.00;99.90;;;;;;4989832;28;20107;-84
2022/10/13 08:47:02;;;;;;;13.20;9.45;;;13.90;99.90;;;;;;4996325;28;20081;-84
2022/10/13 08:49:29;;;;;;;13.85;9.25;;;13.80;99.90;;;;;;4983867;28;20053;-84
2022/10/13 08:52:18;;;;;;;11.93;8.65;;;13.90;99.90;;;;;;5000071;28;20023;-83
2022/10/13 08:54:44;;;;;;;13.20;8.68;;;13.90;99.90;;;;;;5032927;23;20034;-84
2022/10/13 09:31:24;;;;;;;8.43;5.68;;;15.40;99.90;;;;;;5024716;28;20029;-84
2022/10/13 09:34:06;;;;;;;10.85;6.70;;;15.90;99.90;;;;;;5028698;28;20026;-84
2022/10/13 09:36:36;;;;;;;15.95;8.60;;;16.20;98.90;;;;;;5006682;28;20030;-84
2022/10/13 09:39:15;;;;;;;10.68;7.93;;;16.60;96.90;;;;;;4991343;28;20127;-83
2022/10/13 09:41:42;;;;;;;8.98;6.20;;;16.70;95.30;;;;;;4994016;28;20054;-83
2022/10/13 09:44:27;;;;;;;17.02;9.05;;;16.80;95.30;;;;;;4994238;28;20032;-84
2022/10/13 09:46:56;;;;;;;15.15;7.82;;;17.00;94.10;;;;;;4994247;28;20034;-85
2022/10/13 09:49:41;;;;;;;14.18;8.05;;;17.00;93.30;;;;;;4991653;28;20030;-84
2022/10/13 09:52:15;;;;;;;9.48;6.15;;;17.00;92.90;;;;;;4990514;28;20026;-85
2022/10/13 09:54:51;;;;;;;15.50;8.43;;;17.10;93.30;;;;;;4974170;28;20054;-85
2022/10/13 09:57:29;;;;;;;18.15;8.30;;;17.20;92.20;;;;;;4987358;28;20023;-84
2022/10/13 10:00:18;;;;;;;11.35;6.50;;;17.10;92.20;;;;;;4989937;28;20083;-84
2022/10/13 10:03:03;;;;;;;10.13;7.22;;;17.20;92.70;;;;;;4989737;28;20033;-84
2022/10/13 10:05:50;;;;;;;13.23;7.45;;;17.40;92.20;;;;;;4990619;28;20087;-83
2022/10/13 10:08:15;;;;;;;10.35;5.38;;;17.50;91.00;;;;;;4977816;28;20053;-84
2022/10/13 10:10:42;;;;;;;7.88;5.13;;;17.40;91.00;;;;;;5017081;28;20010;-82
2022/10/13 10:13:12;;;;;;;10.65;6.60;;;17.40;91.10;;;;;;5023580;28;20049;-84
2022/10/13 10:16:03;;;;;;;7.53;5.18;;;17.40;90.20;;;;;;4994338;28;20022;-83
2022/10/13 10:18:43;;;;;;;7.25;4.97;;;17.50;90.50;;;;;;4995382;28;20040;-84
2022/10/13 10:21:13;;;;;;;8.50;6.03;;;17.50;90.10;;;;;;5011583;28;20054;-84
2022/10/13 10:23:46;;;;;;;10.75;6.75;;;17.40;89.60;;;;;;4996414;28;20082;-82
2022/10/13 10:26:32;;;;;;;9.52;5.93;;;17.20;89.60;;;;;;4993638;28;20057;-82
2022/10/13 10:29:25;;;;;;;16.13;7.20;;;17.00;90.20;;;;;;5010925;28;20098;-82
2022/10/13 10:32:08;;;;;;;11.93;6.30;;;16.80;90.50;;;;;;4996130;28;20022;-82
2022/10/13 10:34:48;;;;;;;7.30;5.32;;;16.80;91.10;;;;;;5009101;28;20060;-81
2022/10/13 10:37:36;;;;;;;6.65;4.90;;;16.90;91.10;;;;;;5033534;28;20026;-82
2022/10/13 10:40:17;;;;;;;7.63;5.07;;;17.00;90.90;;;;;;5018450;28;20035;-81
2022/10/13 10:43:02;;;;;;;5.60;3.90;;;17.10;90.50;;;;;;4998825;28;20034;-82
2022/10/13 10:45:35;;;;;;;8.85;4.93;;;17.10;90.40;;;;;;4999720;28;20014;-85
2022/10/13 10:48:06;;;;;;;7.65;4.35;;;17.30;90.20;;;;;;4999192;28;20207;-80
2022/10/13 10:50:33;;;;;;;7.85;4.88;;;17.40;89.90;;;;;;5013696;28;20033;-79
2022/10/13 10:53:22;;;;;;;6.00;4.22;;;17.60;88.90;;;;;;5015461;28;20022;-81
2022/10/13 10:55:53;;;;;;;6.30;3.90;;;17.80;87.70;;;;;;5017188;28;20106;-80
2022/10/13 10:58:30;;;;;;;5.63;4.28;;;17.90;87.60;;;;;;4996912;28;20042;-81
2022/10/13 11:01:06;;;;;;;9.45;4.75;;;18.00;86.50;;;;;;5016553;28;20029;-80
2022/10/13 11:04:00;;;;;;;3.72;3.42;;;18.10;85.90;;;;;;5016519;28;20030;-81
2022/10/13 11:06:34;;;;;;;3.55;3.20;;;18.00;85.50;;;;;;4997639;28;20042;-79
2022/10/13 11:09:00;;;;;;;5.72;3.78;;;18.00;85.40;;;;;;5011693;28;20081;-80
2022/10/13 11:11:26;;;;;;;5.57;3.92;;;18.00;85.50;;;;;;4995687;28;20057;-79
2022/10/13 11:14:04;;;;;;;4.47;3.78;;;18.10;85.40;;;;;;4996731;28;20030;-80
2022/10/13 11:17:00;;;;;;;5.82;4.15;;;18.00;85.30;;;;;;5033221;28;20037;-80
2022/10/13 11:19:37;;;;;;;5.32;4.18;;;18.00;85.70;;;;;;5015972;28;20037;-81
2022/10/13 11:22:04;;;;;;;5.95;3.92;;;18.00;85.10;;;;;;5017207;28;20021;-82
2022/10/13 11:24:32;;;;;;;8.50;4.95;;;18.00;85.00;;;;;;5017384;28;20032;-81
2022/10/13 11:27:10;;;;;;;4.60;4.10;;;18.00;84.50;;;;;;5015696;28;20018;-81
2022/10/13 11:29:48;;;;;;;6.90;4.68;;;18.00;84.00;;;;;;5029591;28;20029;-81
2022/10/13 11:35:08;;;;;;;9.32;5.50;;;18.20;82.60;;;;;;5028918;28;20025;-81
2022/10/13 11:37:56;;;;;;;9.85;5.50;;;18.30;82.30;;;;;;5028585;28;20022;-82
2022/10/13 11:40:27;;;;;;;7.82;4.30;;;18.30;82.50;;;;;;4983980;28;20097;-81
2022/10/13 11:43:17;;;;;;;7.47;4.95;;;18.30;82.30;;;;;;5010663;28;20057;-81
2022/10/13 11:46:08;;;;;;;6.03;3.72;;;18.30;81.70;;;;;;4997191;28;20545;-81
2022/10/13 11:48:42;;;;;;;7.72;4.95;;;18.20;82.50;;;;;;5030275;28;20021;-81
2022/10/13 11:51:24;;;;;;;9.32;5.05;;;18.20;82.00;;;;;;5011902;28;20022;-81
2022/10/13 11:54:08;;;;;;;5.78;4.53;;;18.30;81.60;;;;;;5010568;28;20041;-81
2022/10/13 11:56:42;;;;;;;4.40;3.72;;;18.30;81.70;;;;;;5010048;28;20029;-81
2022/10/13 11:59:24;;;;;;;7.63;4.18;;;18.40;81.50;;;;;;5027565;28;20018;-81
2022/10/13 12:01:55;;;;;;;7.25;4.93;;;18.50;80.40;;;;;;5027274;28;20042;-81
2022/10/13 12:04:23;;;;;;;5.72;3.72;;;18.30;80.70;;;;;;5009700;28;20026;-81
2022/10/13 12:06:57;;;;;;;11.65;5.38;;;18.30;81.50;;;;;;5001932;28;20499;-80
2022/10/13 12:09:23;;;;;;;10.50;5.60;;;18.10;81.20;;;;;;5007347;28;20050;-81
2022/10/13 12:12:02;;;;;;;8.15;4.90;;;18.10;81.90;;;;;;5007588;28;20019;-81
2022/10/13 12:14:37;;;;;;;10.48;5.85;;;18.10;82.00;;;;;;5008337;28;20022;-81
2022/10/13 12:17:03;;;;;;;8.50;5.20;;;18.20;81.80;;;;;;4990697;28;20027;-81
2022/10/13 12:19:30;;;;;;;7.40;4.40;;;18.20;81.70;;;;;;5007868;28;20471;-81
2022/10/13 12:22:00;;;;;;;6.93;4.47;;;18.10;81.80;;;;;;5008914;28;20022;-81
2022/10/13 12:24:28;;;;;;;5.15;4.05;;;18.00;82.30;;;;;;4992211;28;20157;-80
2022/10/13 12:26:55;;;;;;;13.57;5.80;;;17.90;82.70;;;;;;4992245;28;20098;-80
2022/10/13 12:29:25;;;;;;;6.13;4.30;;;17.80;81.90;;;;;;5027876;28;20372;-80
2022/10/13 12:31:52;;;;;;;4.68;3.88;;;17.80;83.00;;;;;;4993962;28;20040;-81
2022/10/13 12:34:23;;;;;;;6.15;4.47;;;17.80;83.50;;;;;;5011305;28;20049;-80
2022/10/13 12:37:02;;;;;;;9.65;5.88;;;17.80;83.40;;;;;;5030087;28;20033;-80
2022/10/13 12:39:31;;;;;;;8.10;4.38;;;17.70;83.50;;;;;;5015297;28;20042;-80
2022/10/13 12:41:58;;;;;;;7.05;4.45;;;17.70;84.10;;;;;;5007357;28;20057;-80
2022/10/13 12:44:26;;;;;;;5.38;3.60;;;17.80;83.90;;;;;;5008319;28;20038;-80
2022/10/13 12:46:58;;;;;;;6.07;3.75;;;18.00;83.40;;;;;;5012892;28;20015;-80
2022/10/13 12:49:29;;;;;;;5.97;3.90;;;18.20;82.90;;;;;;5015170;28;20102;-80
2022/10/13 12:52:16;;;;;;;5.20;3.80;;;18.20;82.40;;;;;;5036178;28;20022;-79
2022/10/13 12:54:59;;;;;;;7.63;4.45;;;18.20;82.00;;;;;;5036238;28;20026;-79
2022/10/13 12:57:36;;;;;;;10.13;4.28;;;18.20;81.90;;;;;;5036447;28;20010;-80
2022/10/13 13:00:19;;;;;;;5.80;4.00;;;18.10;82.20;;;;;;5009559;28;20064;-79
2022/10/13 13:03:02;;;;;;;8.93;4.20;;;18.00;82.70;;;;;;5007689;28;20134;-80
2022/10/13 13:05:42;;;;;;;5.55;4.13;;;18.00;82.60;;;;;;5026416;28;20022;-81
2022/10/13 13:08:28;;;;;;;6.28;3.88;;;18.00;82.60;;;;;;5027793;28;20086;-80
2022/10/13 13:10:59;;;;;;;8.68;5.30;;;18.10;82.50;;;;;;4999351;28;20103;-80
2022/10/13 13:13:25;;;;;;;6.32;4.22;;;18.10;81.90;;;;;;5010607;28;20106;-80
2022/10/13 13:15:52;;;;;;;6.50;4.15;;;18.10;82.40;;;;;;5011104;28;20130;-80
2022/10/13 13:18:38;;;;;;;8.20;4.22;;;18.10;82.40;;;;;;5010431;28;20039;-81
2022/10/13 13:21:10;;;;;;;6.40;3.80;;;18.20;82.30;;;;;;4991486;28;20045;-81
2022/10/13 13:23:36;;;;;;;4.40;3.35;;;18.10;82.50;;;;;;4990376;28;20094;-81
2022/10/13 13:26:22;;;;;;;7.63;5.10;;;18.20;82.70;;;;;;4990959;28;20035;-80
2022/10/13 13:28:52;;;;;;;6.72;4.07;;;18.20;81.90;;;;;;4988953;28;20042;-80
2022/10/13 13:31:21;;;;;;;5.55;4.43;;;18.20;82.00;;;;;;4990706;28;20037;-80
2022/10/13 13:33:47;;;;;;;8.70;4.60;;;18.20;82.00;;;;;;4990171;28;20097;-81
2022/10/13 13:36:21;;;;;;;6.95;4.28;;;18.20;82.40;;;;;;4990619;28;20018;-80
2022/10/13 13:38:48;;;;;;;7.10;4.10;;;18.20;82.40;;;;;;5008616;28;20026;-81